Time;durP1;ratioP1;P1;durP2;ratioP2;P2;SDS_P1;SDS_P2;PMS_P1;PMS_P2;Temp;Humidity;BMP_temperature;BMP_pressure;BME280_temperature;BME280_humidity;BME280_pressure;Samples;Min_cycle;Max_cycle;Signal;HPM_P1;HPM_P2
2023/01/13 00:00:45;;;;;;;42.58;26.73;;;;;;;1.70;100.00;100899.41;5112082;27;20015;-71
2023/01/13 00:03:10;;;;;;;37.47;24.63;;;;;;;1.77;100.00;100901.72;5111721;28;20042;-68
2023/01/13 00:05:37;;;;;;;40.55;24.00;;;;;;;1.81;100.00;100903.31;5111623;28;21100;-68
2023/01/13 00:08:05;;;;;;;39.53;24.23;;;;;;;1.79;100.00;100891.09;5109924;28;20062;-68
2023/01/13 00:10:34;;;;;;;44.08;24.67;;;;;;;1.88;100.00;100909.22;5111301;28;20016;-68
2023/01/13 00:13:00;;;;;;;43.45;23.55;;;;;;;1.90;100.00;100905.56;5112094;28;20027;-68
2023/01/13 00:15:25;;;;;;;40.28;24.27;;;;;;;1.96;100.00;100912.38;5108456;28;20034;-67
2023/01/13 00:17:51;;;;;;;34.25;22.58;;;;;;;1.96;100.00;100904.44;5110814;28;20098;-67
2023/01/13 00:20:17;;;;;;;38.33;23.42;;;;;;;1.93;100.00;100892.22;5111239;28;20023;-68
2023/01/13 00:22:42;;;;;;;36.63;22.88;;;;;;;1.85;100.00;100873.19;5111092;28;20024;-68
2023/01/13 00:25:08;;;;;;;32.70;21.70;;;;;;;2.03;100.00;100901.47;5110821;28;20038;-68
2023/01/13 00:27:34;;;;;;;35.78;22.05;;;;;;;2.05;100.00;100893.47;5110601;28;20460;-68
2023/01/13 00:29:59;;;;;;;37.58;21.75;;;;;;;1.99;100.00;100881.38;5110355;28;20011;-69
2023/01/13 00:32:25;;;;;;;37.45;22.25;;;;;;;2.03;100.00;100885.59;5108543;28;20043;-68
2023/01/13 00:34:51;;;;;;;34.95;22.20;;;;;;;2.10;100.00;100891.47;5110030;28;20084;-68
2023/01/13 00:37:16;;;;;;;35.13;20.70;;;;;;;2.12;100.00;100887.84;5107953;28;20480;-68
2023/01/13 00:39:42;;;;;;;32.35;20.95;;;;;;;2.12;100.00;100892.25;5107904;28;20028;-68
2023/01/13 00:44:51;;;;;;;36.28;21.00;;;;;;;2.13;100.00;100904.56;5109130;28;20104;-68
2023/01/13 00:47:17;;;;;;;30.58;20.10;;;;;;;2.12;100.00;100903.72;5110357;28;20032;-68
2023/01/13 00:49:43;;;;;;;32.13;21.50;;;;;;;2.13;100.00;100897.47;5108741;28;20515;-68
2023/01/13 00:52:12;;;;;;;33.90;21.52;;;;;;;2.16;100.00;100899.16;5110432;28;20027;-68
2023/01/13 00:54:37;;;;;;;34.08;21.75;;;;;;;2.15;100.00;100902.69;5110393;28;20119;-68
2023/01/13 00:57:03;;;;;;;32.72;21.08;;;;;;;2.12;100.00;100895.78;5108898;28;20028;-68
2023/01/13 00:59:29;;;;;;;35.75;23.40;;;;;;;2.06;100.00;100893.38;5108738;28;20022;-67
2023/01/13 01:01:55;;;;;;;35.17;21.75;;;;;;;2.08;100.00;100894.19;5110317;28;20032;-67
2023/01/13 01:04:20;;;;;;;34.95;23.58;;;;;;;2.19;100.00;100905.16;5110960;28;20041;-68
2023/01/13 01:06:45;;;;;;;33.67;22.67;;;;;;;2.23;100.00;100917.31;5110957;28;20031;-69
2023/01/13 01:09:14;;;;;;;39.35;22.58;;;;;;;2.23;100.00;100906.72;5110725;28;20496;-69
2023/01/13 01:11:41;;;;;;;40.20;25.90;;;;;;;2.28;100.00;100898.59;5110630;28;20045;-69
2023/01/13 01:14:08;;;;;;;39.83;25.45;;;;;;;2.26;100.00;100896.00;5110793;28;20575;-69
2023/01/13 01:16:34;;;;;;;44.42;24.60;;;;;;;2.30;100.00;100908.16;5109404;28;20573;-67
2023/01/13 01:19:00;;;;;;;33.67;22.02;;;;;;;2.34;100.00;100915.06;5110775;28;20028;-68
2023/01/13 01:21:27;;;;;;;40.50;23.63;;;;;;;2.25;100.00;100889.00;5110647;28;20103;-67
2023/01/13 01:23:53;;;;;;;35.53;23.02;;;;;;;2.28;100.00;100904.75;5110474;27;20036;-67
2023/01/13 01:26:22;;;;;;;37.05;22.33;;;;;;;2.25;100.00;100899.59;5109003;28;20413;-67
2023/01/13 01:28:48;;;;;;;38.80;23.02;;;;;;;2.22;100.00;100905.03;5110217;28;20035;-67
2023/01/13 01:31:21;;;;;;;37.75;22.88;;;;;;;2.12;100.00;100882.53;5110393;28;20494;-67
2023/01/13 01:33:48;;;;;;;35.00;22.27;;;;;;;2.04;100.00;100878.53;5108966;28;20027;-68
2023/01/13 01:36:16;;;;;;;34.40;22.70;;;;;;;2.10;100.00;100889.69;5110376;28;20043;-68
2023/01/13 01:38:42;;;;;;;37.88;21.73;;;;;;;2.07;100.00;100899.56;5110257;28;20430;-67
2023/01/13 01:41:12;;;;;;;35.40;21.15;;;;;;;2.01;100.00;100891.88;5110169;28;20057;-66
2023/01/13 01:44:02;;;;;;;29.88;20.88;;;;;;;1.91;100.00;100883.47;5108965;28;20387;-68
2023/01/13 01:46:32;;;;;;;29.35;19.02;;;;;;;1.91;100.00;100883.47;5110393;28;20055;-68
2023/01/13 01:49:03;;;;;;;29.40;19.88;;;;;;;1.78;100.00;100865.59;5108715;28;20571;-68
2023/01/13 01:51:32;;;;;;;31.63;20.88;;;;;;;1.73;100.00;100867.56;5109719;28;20551;-69
2023/01/13 01:54:01;;;;;;;31.77;20.65;;;;;;;1.70;100.00;100868.56;5109873;28;20036;-67
2023/01/13 01:56:27;;;;;;;32.10;21.63;;;;;;;1.71;100.00;100866.78;5110369;28;20455;-68
2023/01/13 01:58:53;;;;;;;32.53;21.77;;;;;;;1.67;100.00;100873.97;5110095;28;20087;-66
2023/01/13 02:01:19;;;;;;;30.98;21.08;;;;;;;1.62;100.00;100857.44;5109708;28;20138;-69
2023/01/13 02:04:12;;;;;;;35.05;22.40;;;;;;;1.57;100.00;100853.28;5109864;28;20103;-67
2023/01/13 02:06:38;;;;;;;30.65;20.25;;;;;;;1.52;100.00;100860.56;5110057;28;20027;-68
2023/01/13 02:09:04;;;;;;;30.67;20.85;;;;;;;1.48;100.00;100845.75;5109980;28;20134;-67
2023/01/13 02:14:22;;;;;;;30.80;20.80;;;;;;;1.51;100.00;100850.88;5109931;28;20177;-67
2023/01/13 02:16:55;;;;;;;33.15;22.13;;;;;;;1.46;100.00;100843.19;5109486;28;20024;-68
2023/01/13 02:19:58;;;;;;;30.48;20.23;;;;;;;1.56;100.00;100855.06;5109650;28;20027;-68
2023/01/13 02:22:26;;;;;;;31.50;21.20;;;;;;;1.59;100.00;100851.44;5107706;28;20027;-67
2023/01/13 02:25:30;;;;;;;32.00;21.52;;;;;;;1.46;100.00;100835.25;5109209;28;20111;-67
2023/01/13 02:27:58;;;;;;;30.13;20.88;;;;;;;1.52;100.00;100840.25;5109443;28;20471;-67
2023/01/13 02:33:29;;;;;;;29.92;19.73;;;;;;;1.39;100.00;100831.13;5109432;28;20064;-67
2023/01/13 02:36:11;;;;;;;34.63;22.05;;;;;;;1.43;100.00;100845.94;5109066;28;20040;-68
2023/01/13 02:38:52;;;;;;;34.95;21.02;;;;;;;1.41;100.00;100846.91;5109364;28;20032;-67
2023/01/13 02:44:13;;;;;;;40.70;22.88;;;;;;;1.39;100.00;100846.13;5109681;28;20100;-67
2023/01/13 02:46:50;;;;;;;41.30;22.92;;;;;;;1.41;100.00;100831.06;5109385;28;20115;-68
2023/01/13 02:49:27;;;;;;;54.85;26.15;;;;;;;1.38;100.00;100826.78;5108831;28;20043;-68
2023/01/13 02:52:02;;;;;;;73.15;30.58;;;;;;;1.43;100.00;100827.44;5109367;28;20021;-67
2023/01/13 02:54:29;;;;;;;68.25;31.88;;;;;;;1.47;100.00;100826.38;5108888;28;20027;-67
2023/01/13 02:56:57;;;;;;;60.58;29.42;;;;;;;1.31;100.00;100801.53;5107773;28;20031;-67
2023/01/13 02:59:25;;;;;;;44.70;24.77;;;;;;;1.48;100.00;100822.81;5109425;28;20023;-67
2023/01/13 03:01:54;;;;;;;45.70;25.83;;;;;;;1.52;100.00;100826.19;5108369;28;20499;-69
2023/01/13 03:04:44;;;;;;;38.00;22.13;;;;;;;1.57;100.00;100824.19;5108814;28;20036;-67
2023/01/13 03:07:32;;;;;;;34.28;20.75;;;;;;;1.55;100.00;100826.06;5109162;28;20031;-68
2023/01/13 03:10:16;;;;;;;33.10;21.33;;;;;;;1.58;100.00;100828.56;5108766;28;20030;-69
2023/01/13 03:12:50;;;;;;;33.45;21.60;;;;;;;1.55;100.00;100826.06;5108702;28;20575;-68
2023/01/13 03:15:35;;;;;;;36.08;23.23;;;;;;;1.54;100.00;100814.63;5108465;28;20023;-68
2023/01/13 03:18:39;;;;;;;38.08;23.70;;;;;;;1.56;100.00;100820.72;5107243;28;20028;-67
2023/01/13 03:21:26;;;;;;;31.52;20.77;;;;;;;1.54;100.00;100817.25;5077363;28;20043;-70
2023/01/13 03:24:06;;;;;;;35.97;22.17;;;;;;;1.55;100.00;100818.13;5108779;28;20035;-69
2023/01/13 03:26:38;;;;;;;37.38;21.90;;;;;;;1.56;100.00;100812.78;5109026;28;20031;-70
2023/01/13 03:29:33;;;;;;;33.08;22.40;;;;;;;1.58;100.00;100816.19;5108934;28;20144;-71
2023/01/13 03:32:14;;;;;;;35.60;20.77;;;;;;;1.58;100.00;100818.00;5107267;28;20040;-70
2023/01/13 03:34:49;;;;;;;27.25;20.08;;;;;;;1.55;100.00;100811.03;5109092;28;20055;-70
2023/01/13 03:37:18;;;;;;;29.30;20.52;;;;;;;1.56;100.00;100817.19;5109043;28;20042;-70
2023/01/13 03:39:59;;;;;;;30.02;19.48;;;;;;;1.48;100.00;100809.59;5109290;28;20036;-70
2023/01/13 03:42:29;;;;;;;30.02;19.30;;;;;;;1.49;100.00;100807.81;5108427;28;20101;-71
2023/01/13 03:45:20;;;;;;;30.60;20.10;;;;;;;1.38;100.00;100789.78;5108337;28;20095;-69
2023/01/13 03:47:55;;;;;;;27.05;18.38;;;;;;;1.44;100.00;100807.16;5105873;28;20138;-70
2023/01/13 03:50:29;;;;;;;27.55;18.58;;;;;;;1.44;100.00;100807.16;5107440;28;20051;-69
2023/01/13 03:53:01;;;;;;;25.40;16.80;;;;;;;1.44;100.00;100812.44;5107026;28;20027;-69
2023/01/13 03:55:32;;;;;;;24.63;17.20;;;;;;;1.41;100.00;100810.78;5107531;28;20023;-70
2023/01/13 03:58:09;;;;;;;26.15;16.73;;;;;;;1.40;100.00;100814.38;5107635;28;20027;-69
2023/01/13 04:01:02;;;;;;;24.58;17.35;;;;;;;1.35;100.00;100808.41;5108487;28;20023;-69
2023/01/13 04:03:37;;;;;;;25.08;15.73;;;;;;;1.41;100.00;100802.00;5094537;28;20040;-70
2023/01/13 04:06:25;;;;;;;23.10;15.85;;;;;;;1.32;100.00;100800.59;5107296;28;20396;-70
2023/01/13 04:09:15;;;;;;;22.50;14.88;;;;;;;1.28;100.00;100801.66;5108448;28;20532;-70
2023/01/13 04:11:46;;;;;;;28.05;16.10;;;;;;;1.28;100.00;100799.03;5108439;28;20024;-70
2023/01/13 04:14:14;;;;;;;28.83;17.02;;;;;;;1.25;100.00;100801.78;5109146;28;20051;-70
2023/01/13 04:16:40;;;;;;;32.60;17.88;;;;;;;1.20;100.00;100789.72;5112088;28;20464;-70
2023/01/13 04:19:05;;;;;;;27.27;16.33;;;;;;;1.14;100.00;100775.00;5112413;28;20011;-70
2023/01/13 04:21:33;;;;;;;24.67;14.75;;;;;;;1.10;100.00;100767.25;5111887;28;20673;-70
2023/01/13 04:23:59;;;;;;;21.10;14.32;;;;;;;1.23;100.00;100793.06;5111989;28;20045;-71
2023/01/13 04:26:24;;;;;;;22.75;14.52;;;;;;;1.21;100.00;100794.06;5112112;28;20028;-70
2023/01/13 04:28:50;;;;;;;19.95;14.90;;;;;;;1.25;100.00;100798.28;5111949;28;20454;-70
2023/01/13 04:31:16;;;;;;;19.50;13.90;;;;;;;1.21;100.00;100788.78;5111978;28;20115;-71
2023/01/13 04:33:42;;;;;;;19.67;13.55;;;;;;;1.30;100.00;100799.84;5111509;28;20114;-70
2023/01/13 04:36:08;;;;;;;20.88;13.48;;;;;;;1.26;100.00;100797.38;5111732;28;20050;-70
2023/01/13 04:38:33;;;;;;;19.23;12.63;;;;;;;1.25;100.00;100796.50;5109897;28;20027;-70
2023/01/13 04:40:58;;;;;;;20.23;13.82;;;;;;;1.24;100.00;100793.94;5111526;28;20387;-70
2023/01/13 04:43:24;;;;;;;17.85;12.43;;;;;;;1.25;100.00;100796.50;5111532;28;20028;-69
2023/01/13 04:45:50;;;;;;;18.55;12.50;;;;;;;1.25;100.00;100796.50;5109639;28;20288;-70
2023/01/13 04:48:15;;;;;;;17.20;12.75;;;;;;;1.27;100.00;100794.69;5110786;28;20391;-69
2023/01/13 04:50:41;;;;;;;19.35;12.70;;;;;;;1.31;100.00;100798.91;5110820;28;20654;-69
2023/01/13 04:53:06;;;;;;;17.23;12.88;;;;;;;1.36;100.00;100802.19;5111122;27;20514;-70
2023/01/13 04:55:32;;;;;;;18.42;12.55;;;;;;;1.35;100.00;100797.84;5111000;28;20027;-69
2023/01/13 04:58:06;;;;;;;22.80;13.52;;;;;;;1.32;100.00;100803.25;5109902;28;20031;-68
2023/01/13 05:00:32;;;;;;;16.35;11.77;;;;;;;1.32;100.00;100808.53;5110364;28;20036;-70
2023/01/13 05:02:58;;;;;;;17.65;11.88;;;;;;;1.34;100.00;100801.41;5111259;28;20036;-70
2023/01/13 05:05:25;;;;;;;17.15;12.20;;;;;;;1.29;100.00;100792.81;5110694;28;20118;-69
2023/01/13 05:07:50;;;;;;;19.17;12.40;;;;;;;1.39;100.00;100806.50;5110653;28;20024;-70
2023/01/13 05:10:16;;;;;;;22.27;14.13;;;;;;;1.42;100.00;100816.94;5110284;28;20076;-69
2023/01/13 05:18:10;;;;;;;18.08;12.38;;;;;;;1.41;100.00;100818.72;5110429;28;20115;-70
2023/01/13 05:20:35;;;;;;;18.05;13.20;;;;;;;1.44;100.00;100820.38;5108848;28;20728;-70
2023/01/13 05:25:46;;;;;;;17.73;12.73;;;;;;;1.38;100.00;100824.13;5108421;28;20042;-69
2023/01/13 05:28:12;;;;;;;22.85;14.35;;;;;;;1.43;100.00;100838.03;5109694;28;20042;-69
2023/01/13 05:30:42;;;;;;;19.98;14.40;;;;;;;1.38;100.00;100825.91;5110236;28;20028;-71
2023/01/13 05:33:09;;;;;;;22.80;15.07;;;;;;;1.39;100.00;100835.56;5109625;28;20019;-68
2023/01/13 05:35:38;;;;;;;22.50;15.43;;;;;;;1.41;100.00;100836.34;5110217;28;20539;-69
2023/01/13 05:38:03;;;;;;;21.83;15.52;;;;;;;1.36;100.00;100836.53;5106221;28;20027;-70
2023/01/13 05:43:23;;;;;;;20.67;14.38;;;;;;;1.36;100.00;100830.41;5107895;28;20592;-70
2023/01/13 05:45:53;;;;;;;23.27;15.45;;;;;;;1.34;100.00;100833.13;5110434;28;20088;-70
2023/01/13 05:48:21;;;;;;;24.10;15.80;;;;;;;1.33;100.00;100830.53;5109445;28;20051;-68
2023/01/13 05:50:48;;;;;;;26.92;17.13;;;;;;;1.26;100.00;100822.00;5108174;28;20035;-68
2023/01/13 05:53:14;;;;;;;27.30;17.67;;;;;;;1.27;100.00;100830.78;5108247;28;20055;-68
2023/01/13 05:55:40;;;;;;;26.45;17.17;;;;;;;1.24;100.00;100823.88;5109632;28;20066;-68
2023/01/13 05:58:07;;;;;;;23.58;16.02;;;;;;;1.21;100.00;100837.19;5108161;28;20055;-68
2023/01/13 06:00:33;;;;;;;27.83;17.20;;;;;;;1.12;100.00;100827.00;5109332;28;20076;-67
2023/01/13 06:02:58;;;;;;;25.40;17.63;;;;;;;1.19;100.00;100830.28;5109936;28;20036;-68
2023/01/13 06:05:24;;;;;;;28.80;17.70;;;;;;;1.15;100.00;100820.72;5107137;28;20513;-67
2023/01/13 06:07:49;;;;;;;23.00;15.80;;;;;;;1.06;100.00;100816.69;5109450;28;20038;-66
2023/01/13 06:10:15;;;;;;;23.38;16.45;;;;;;;1.09;100.00;100835.06;5102438;28;20035;-67
2023/01/13 06:12:41;;;;;;;25.48;16.00;;;;;;;1.16;100.00;100847.06;5108284;28;20404;-66
2023/01/13 06:15:07;;;;;;;26.23;17.88;;;;;;;1.15;100.00;100839.22;5109098;28;20083;-66
2023/01/13 06:17:32;;;;;;;24.52;16.48;;;;;;;1.19;100.00;100854.88;5109144;28;20039;-67
2023/01/13 06:19:58;;;;;;;25.70;17.17;;;;;;;1.17;100.00;100843.53;5109328;28;20083;-68
2023/01/13 06:22:27;;;;;;;25.60;16.88;;;;;;;1.17;100.00;100845.31;5108156;28;20043;-68
2023/01/13 06:24:53;;;;;;;21.25;15.40;;;;;;;1.23;100.00;100856.47;5106336;28;20095;-67
2023/01/13 06:27:20;;;;;;;20.23;14.45;;;;;;;1.27;100.00;100858.09;5107235;28;20031;-68
2023/01/13 06:29:45;;;;;;;25.83;17.00;;;;;;;1.19;100.00;100854.03;5108070;28;20032;-68
2023/01/13 06:32:16;;;;;;;23.60;15.43;;;;;;;1.23;100.00;100859.09;5109223;28;20092;-68
2023/01/13 06:34:47;;;;;;;22.02;14.80;;;;;;;1.23;100.00;100850.34;5109122;28;20031;-68
2023/01/13 06:37:15;;;;;;;19.73;14.75;;;;;;;1.29;100.00;100868.59;5106897;28;20033;-69
2023/01/13 06:39:41;;;;;;;23.80;15.00;;;;;;;1.28;100.00;100873.00;5109111;28;20020;-68
2023/01/13 06:44:50;;;;;;;20.20;14.63;;;;;;;1.26;100.00;100872.19;5107224;28;20027;-68
2023/01/13 06:47:17;;;;;;;19.73;14.57;;;;;;;1.21;100.00;100855.69;5108435;28;20027;-67
2023/01/13 06:49:42;;;;;;;23.90;14.98;;;;;;;1.16;100.00;100839.16;5108682;28;20395;-66
2023/01/13 06:52:07;;;;;;;19.77;14.68;;;;;;;1.25;100.00;100857.28;5106994;28;20036;-67
2023/01/13 06:54:33;;;;;;;24.17;13.73;;;;;;;1.32;100.00;100866.66;5108939;28;20035;-67
2023/01/13 06:56:59;;;;;;;23.33;16.55;;;;;;;1.33;100.00;100864.88;5108604;28;20032;-66
2023/01/13 06:59:25;;;;;;;21.75;15.30;;;;;;;1.35;100.00;100855.97;5104280;28;20072;-67
2023/01/13 07:01:50;;;;;;;22.92;15.55;;;;;;;1.37;100.00;100840.03;5107098;28;20020;-67
2023/01/13 07:04:17;;;;;;;21.15;14.73;;;;;;;1.50;100.00;100851.81;5107782;28;20027;-67
2023/01/13 07:06:43;;;;;;;25.15;15.20;;;;;;;1.52;100.00;100844.69;5108216;28;20031;-67
2023/01/13 07:09:08;;;;;;;22.00;15.18;;;;;;;1.56;100.00;100847.16;5108124;28;20472;-67
2023/01/13 07:11:34;;;;;;;22.20;15.20;;;;;;;1.43;100.00;100814.25;5108346;28;20031;-67
2023/01/13 07:16:44;;;;;;;28.45;14.65;;;;;;;1.59;100.00;100836.44;5108837;28;20457;-67
2023/01/13 07:19:09;;;;;;;23.95;15.45;;;;;;;1.64;100.00;100837.09;5107505;28;20110;-67
2023/01/13 07:21:35;;;;;;;27.50;16.95;;;;;;;1.66;100.00;100834.38;5108296;28;20589;-67
2023/01/13 07:24:00;;;;;;;26.05;16.50;;;;;;;1.70;100.00;100831.53;5108730;28;20028;-67
2023/01/13 07:26:26;;;;;;;26.10;16.60;;;;;;;1.83;100.00;100845.94;5108485;28;20437;-67
2023/01/13 07:28:51;;;;;;;24.20;15.95;;;;;;;1.71;100.00;100819.19;5108403;28;20035;-67
2023/01/13 07:31:20;;;;;;;21.75;15.63;;;;;;;1.83;100.00;100832.72;5107267;28;20036;-67
2023/01/13 07:33:45;;;;;;;24.48;15.55;;;;;;;1.97;100.00;100851.47;5108492;28;20062;-67
2023/01/13 07:36:11;;;;;;;23.42;16.77;;;;;;;1.97;100.00;100843.53;5108624;28;20067;-67
2023/01/13 07:38:38;;;;;;;26.00;17.23;;;;;;;2.05;100.00;100844.06;5108070;28;20038;-67
2023/01/13 07:43:49;;;;;;;31.23;18.67;;;;;;;2.11;100.00;100838.50;5108046;28;20030;-68
2023/01/13 07:46:15;;;;;;;25.50;17.55;;;;;;;2.20;100.00;100853.94;5108230;28;20028;-67
2023/01/13 07:48:40;;;;;;;22.42;15.68;;;;;;;2.20;100.00;100859.22;5107943;28;20073;-67
2023/01/13 07:51:08;;;;;;;26.23;15.88;;;;;;;2.21;100.00;100849.53;5111974;28;20468;-68
2023/01/13 07:53:34;;;;;;;22.95;14.90;;;;;;;2.30;100.00;100857.88;5112054;28;20028;-68
2023/01/13 07:56:00;;;;;;;19.75;13.80;;;;;;;2.27;100.00;100852.75;5111817;28;20030;-67
2023/01/13 07:58:27;;;;;;;21.35;14.63;;;;;;;2.44;100.00;100867.84;5111954;28;20037;-67
2023/01/13 08:00:53;;;;;;;24.17;14.05;;;;;;;2.34;100.00;100855.97;5111703;28;20039;-67
2023/01/13 08:03:19;;;;;;;23.48;14.15;;;;;;;2.36;100.00;100865.56;5112193;27;20059;-67
2023/01/13 08:05:45;;;;;;;21.58;14.35;;;;;;;2.43;100.00;100858.22;5111965;28;20066;-67
2023/01/13 08:08:11;;;;;;;23.13;14.85;;;;;;;2.45;100.00;100872.22;5111886;27;20059;-67
2023/01/13 08:10:36;;;;;;;21.60;14.50;;;;;;;2.39;100.00;100865.41;5108883;28;20064;-67
2023/01/13 08:13:17;;;;;;;21.92;14.45;;;;;;;2.51;100.00;100874.56;5109867;28;20452;-67
2023/01/13 08:15:43;;;;;;;25.73;15.48;;;;;;;2.50;100.00;100872.00;5108896;28;20027;-67
2023/01/13 08:18:09;;;;;;;23.10;15.13;;;;;;;2.55;100.00;100873.53;5110307;27;20038;-67
2023/01/13 08:20:35;;;;;;;25.45;15.32;;;;;;;2.59;100.00;100877.75;5109880;28;20110;-67
2023/01/13 08:23:02;;;;;;;26.20;16.33;;;;;;;2.66;100.00;100875.66;5110638;28;20119;-68
2023/01/13 08:25:28;;;;;;;25.30;15.95;;;;;;;2.64;100.00;100869.59;5109800;28;20057;-67
2023/01/13 08:27:53;;;;;;;23.00;15.65;;;;;;;2.70;100.00;100874.59;5111234;28;20273;-67
2023/01/13 08:30:19;;;;;;;25.98;16.88;;;;;;;2.69;100.00;100875.50;5110026;28;20115;-66
2023/01/13 08:32:46;;;;;;;23.83;16.35;;;;;;;2.81;100.00;100878.47;5111436;28;20062;-67
2023/01/13 08:35:12;;;;;;;24.88;15.95;;;;;;;2.81;100.00;100880.25;5111514;28;20506;-67
2023/01/13 08:37:38;;;;;;;24.90;16.75;;;;;;;2.88;100.00;100884.31;5111081;28;20023;-67
2023/01/13 08:40:04;;;;;;;25.23;16.15;;;;;;;2.85;100.00;100880.03;5111186;28;20035;-68
2023/01/13 08:42:30;;;;;;;28.88;17.13;;;;;;;2.89;100.00;100886.03;5109216;28;20030;-67
2023/01/13 08:44:56;;;;;;;32.85;19.38;;;;;;;2.89;100.00;100880.72;5110429;28;20390;-67
2023/01/13 08:47:22;;;;;;;27.17;17.60;;;;;;;2.94;100.00;100881.38;5110821;28;20035;-68
2023/01/13 08:49:48;;;;;;;29.35;17.00;;;;;;;2.90;100.00;100878.00;5110531;28;20047;-67
2023/01/13 08:52:13;;;;;;;27.88;17.55;;;;;;;2.89;100.00;100871.00;5109070;28;20035;-67
2023/01/13 08:54:39;;;;;;;26.42;16.92;;;;;;;3.02;100.00;100872.13;5110122;28;20050;-67
2023/01/13 08:57:05;;;;;;;29.73;17.80;;;;;;;3.07;100.00;100871.91;5110517;28;20031;-67
2023/01/13 08:59:30;;;;;;;29.77;18.17;;;;;;;3.09;100.00;100870.06;5109826;28;20023;-67
2023/01/13 09:01:56;;;;;;;28.25;17.02;;;;;;;3.08;100.00;100865.66;5104791;28;20495;-67
2023/01/13 09:04:23;;;;;;;28.35;18.50;;;;;;;3.13;100.00;100871.63;5106127;28;20058;-67
2023/01/13 09:06:49;;;;;;;28.15;17.90;;;;;;;3.26;100.00;100875.38;5108558;28;20035;-67
2023/01/13 09:09:16;;;;;;;28.98;17.58;;;;;;;3.20;100.00;100860.66;5109979;28;20134;-67
2023/01/13 09:14:30;;;;;;;38.97;23.02;;;;;;;3.38;100.00;100870.31;5109735;28;20085;-67
2023/01/13 09:16:57;;;;;;;29.98;19.00;;;;;;;3.41;100.00;100875.47;5109580;28;20027;-67
2023/01/13 09:19:22;;;;;;;27.73;17.27;;;;;;;3.43;100.00;100872.75;5109965;28;20516;-67
2023/01/13 09:21:48;;;;;;;29.10;18.10;;;;;;;3.40;100.00;100857.00;5110355;28;20102;-67
2023/01/13 09:24:13;;;;;;;29.80;17.60;;;;;;;3.45;100.00;100854.97;5110169;28;20067;-67
2023/01/13 09:26:39;;;;;;;30.73;17.23;;;;;;;3.55;100.00;100872.16;5110058;28;20084;-67
2023/01/13 09:29:04;;;;;;;27.65;17.55;;;;;;;3.59;100.00;100869.25;5109587;27;20047;-67
2023/01/13 09:31:33;;;;;;;31.77;17.60;;;;;;;3.64;100.00;100882.28;5109580;28;20015;-67
2023/01/13 09:36:47;;;;;;;29.83;17.63;;;;;;;3.72;100.00;100866.84;5110444;28;20112;-67
2023/01/13 09:39:13;;;;;;;32.65;19.02;;;;;;;3.75;100.00;100869.34;5108529;28;20455;-68
2023/01/13 09:44:48;;;;;;;32.05;18.48;;;;;;;3.84;100.00;100852.94;5109845;28;20046;-68
2023/01/13 09:47:21;;;;;;;30.65;17.05;;;;;;;3.96;100.00;100870.88;5109659;28;20044;-67
2023/01/13 09:49:47;;;;;;;30.88;18.63;;;;;;;3.97;100.00;100859.34;5107989;28;20071;-67
2023/01/13 09:52:19;;;;;;;33.75;19.10;;;;;;;4.00;100.00;100854.72;5109480;28;20050;-68
2023/01/13 09:54:54;;;;;;;28.45;17.25;;;;;;;4.00;100.00;100843.25;5109114;28;20055;-67
2023/01/13 09:57:20;;;;;;;33.22;17.48;;;;;;;4.07;100.00;100850.78;5109328;28;20060;-67
2023/01/13 09:59:47;;;;;;;34.90;19.00;;;;;;;4.06;100.00;100837.59;5109661;28;20047;-67
2023/01/13 10:02:31;;;;;;;32.33;19.85;;;;;;;4.22;100.00;100852.63;5109335;28;20095;-67
2023/01/13 10:05:03;;;;;;;;;;;;;;;4.31;100.00;100849.50;5109915;28;20023;-67
2023/01/13 10:07:31;;;;;;;28.88;16.73;;;;;;;4.32;100.00;100845.91;5109231;28;22135;-67
2023/01/13 10:09:58;;;;;;;31.95;18.10;;;;;;;4.35;100.00;100839.56;5107916;28;20103;-67
2023/01/13 10:15:16;;;;;;;28.65;16.20;;;;;;;4.43;100.00;100842.66;5108165;28;20047;-67
2023/01/13 10:17:52;;;;;;;29.80;17.58;;;;;;;4.46;100.00;100837.19;5109017;28;20106;-68
2023/01/13 10:20:27;;;;;;;29.23;16.95;;;;;;;4.50;100.00;100833.41;5107881;28;20011;-68
2023/01/13 10:23:13;;;;;;;31.45;16.13;;;;;;;4.56;100.00;100827.78;5107339;28;20035;-67
2023/01/13 10:26:21;;;;;;;28.17;16.75;;;;;;;4.45;100.00;100812.41;5107473;28;20134;-67
2023/01/13 10:28:56;;;;;;;29.60;16.92;;;;;;;4.60;100.00;100813.38;5108757;28;20031;-67
2023/01/13 10:31:23;;;;;;;30.55;15.80;;;;;;;4.61;100.00;100804.44;5108663;28;20085;-67
2023/01/13 10:33:57;;;;;;;33.38;18.27;;;;;;;4.69;100.00;100813.75;5108740;28;20050;-67
2023/01/13 10:36:22;;;;;;;;;;;;;;;4.72;100.00;100808.25;5109130;28;20031;-67
2023/01/13 10:38:49;;;;;;;30.20;17.23;;;;;;;4.76;100.00;100803.59;5107049;28;19938;-67
2023/01/13 10:41:15;;;;;;;30.95;17.15;;;;;;;4.83;100.00;100804.97;5108448;28;20039;-67
2023/01/13 10:43:44;;;;;;;33.33;19.08;;;;;;;4.90;100.00;100795.69;5104107;28;20027;-68
2023/01/13 10:46:17;;;;;;;34.85;17.95;;;;;;;4.88;100.00;100797.59;5104451;28;20034;-67
2023/01/13 10:48:54;;;;;;;35.90;18.97;;;;;;;5.01;100.00;100793.31;5107753;28;20487;-67
2023/01/13 10:51:36;;;;;;;37.58;19.50;;;;;;;5.04;100.00;100797.56;5108045;28;20264;-65
2023/01/13 10:54:12;;;;;;;33.93;19.17;;;;;;;5.07;100.00;100798.28;5108447;28;20067;-68
2023/01/13 10:56:46;;;;;;;35.47;19.45;;;;;;;5.12;100.00;100798.00;5099117;28;20479;-67
2023/01/13 10:59:21;;;;;;;35.40;18.33;;;;;;;5.20;100.00;100809.91;5099722;28;20038;-68
2023/01/13 11:02:00;;;;;;;33.35;17.05;;;;;;;5.21;100.00;100790.34;5105362;28;20122;-68
2023/01/13 11:04:30;;;;;;;29.73;16.58;;;;;;;5.26;100.00;100792.72;5101993;28;20036;-67
2023/01/13 11:06:56;;;;;;;31.20;16.70;;;;;;;5.29;100.00;100796.06;5101565;28;20080;-68
2023/01/13 11:09:25;;;;;;;33.15;17.63;;;;;;;5.30;100.00;100794.25;5104688;28;20080;-67
2023/01/13 11:11:54;;;;;;;31.17;16.77;;;;;;;5.35;100.00;100797.53;5100095;28;20109;-68
2023/01/13 11:14:32;;;;;;;32.90;16.30;;;;;;;5.40;100.00;100784.78;5103569;28;20023;-68
2023/01/13 11:17:04;;;;;;;33.05;17.05;;;;;;;5.41;100.00;100773.19;5102602;28;20118;-68
2023/01/13 11:19:32;;;;;;;33.63;17.45;;;;;;;5.39;100.00;100762.69;5097320;28;20080;-68
2023/01/13 11:22:10;;;;;;;29.90;15.93;;;;;;;5.47;100.00;100771.03;5105427;28;20032;-67
2023/01/13 11:24:49;;;;;;;31.63;16.17;;;;;;;5.55;100.00;100773.25;5105578;28;20039;-68
2023/01/13 11:27:24;;;;;;;27.48;15.93;;;;;;;5.64;100.00;100781.53;5102891;28;20101;-69
2023/01/13 11:29:58;;;;;;;31.30;16.02;;;;;;;5.73;100.00;100778.31;5099087;28;20056;-69
2023/01/13 11:32:24;;;;;;;29.73;15.95;;;;;;;5.78;100.00;100770.06;5100549;28;20807;-69
2023/01/13 11:34:58;;;;;;;32.30;16.90;;;;;;;5.84;100.00;100783.84;5106741;28;20077;-67
2023/01/13 11:37:35;;;;;;;30.88;16.10;;;;;;;5.89;100.00;100776.47;5109653;28;20043;-67
2023/01/13 11:40:11;;;;;;;28.48;15.65;;;;;;;5.86;100.00;100766.00;5111582;28;20020;-67
2023/01/13 11:42:45;;;;;;;29.60;15.57;;;;;;;5.93;100.00;100766.50;5111887;28;20024;-66
2023/01/13 11:45:22;;;;;;;32.00;17.30;;;;;;;5.97;100.00;100765.34;5108605;28;20035;-68
2023/01/13 11:47:52;;;;;;;29.52;15.30;;;;;;;5.98;100.00;100761.72;5111860;28;20031;-67
2023/01/13 11:50:33;;;;;;;28.08;15.02;;;;;;;6.01;100.00;100772.19;5111434;28;20072;-67
2023/01/13 11:53:39;;;;;;;26.05;14.63;;;;;;;6.03;100.00;100757.81;5110272;28;20733;-67
2023/01/13 11:56:30;;;;;;;25.33;13.85;;;;;;;6.09;100.00;100753.91;5070693;28;20429;-67
2023/01/13 11:59:18;;;;;;;26.73;14.30;;;;;;;6.20;100.00;100748.78;5111289;28;20785;-67
2023/01/13 12:02:17;;;;;;;26.92;14.82;;;;;;;6.18;100.00;100738.22;5107906;28;20051;-67
2023/01/13 12:04:47;;;;;;;26.60;14.20;;;;;;;6.26;100.00;100746.56;5110133;28;20019;-67